sensor_id;sensor_type;location;lat;lon;timestamp;P1;durP1;ratioP1;P2;durP2;ratioP2
66143;SDS011;52947;50.842;6.084;2024-03-22T00:02:24;46.53;;;22.20;;
66143;SDS011;52947;50.842;6.084;2024-03-22T00:04:50;55.20;;;24.92;;
66143;SDS011;52947;50.842;6.084;2024-03-22T00:07:17;37.90;;;21.65;;
66143;SDS011;52947;50.842;6.084;2024-03-22T00:09:43;45.20;;;21.23;;
66143;SDS011;52947;50.842;6.084;2024-03-22T00:12:10;40.45;;;20.70;;
66143;SDS011;52947;50.842;6.084;2024-03-22T00:14:36;41.83;;;22.02;;
66143;SDS011;52947;50.842;6.084;2024-03-22T00:17:03;40.88;;;21.23;;
66143;SDS011;52947;50.842;6.084;2024-03-22T00:19:31;36.00;;;16.38;;
66143;SDS011;52947;50.842;6.084;2024-03-22T00:21:58;30.02;;;14.95;;
66143;SDS011;52947;50.842;6.084;2024-03-22T00:24:24;37.95;;;18.98;;
66143;SDS011;52947;50.842;6.084;2024-03-22T00:26:51;36.83;;;17.92;;
66143;SDS011;52947;50.842;6.084;2024-03-22T00:29:17;30.63;;;15.10;;
66143;SDS011;52947;50.842;6.084;2024-03-22T00:31:44;36.95;;;18.85;;
66143;SDS011;52947;50.842;6.084;2024-03-22T00:34:10;32.28;;;15.45;;
66143;SDS011;52947;50.842;6.084;2024-03-22T00:36:44;35.63;;;15.80;;
66143;SDS011;52947;50.842;6.084;2024-03-22T00:39:11;41.83;;;17.90;;
66143;SDS011;52947;50.842;6.084;2024-03-22T00:41:38;36.10;;;17.40;;
66143;SDS011;52947;50.842;6.084;2024-03-22T00:44:04;36.00;;;18.30;;
66143;SDS011;52947;50.842;6.084;2024-03-22T00:46:31;27.42;;;16.00;;
66143;SDS011;52947;50.842;6.084;2024-03-22T00:48:57;36.65;;;18.40;;
66143;SDS011;52947;50.842;6.084;2024-03-22T00:51:25;41.97;;;19.15;;
66143;SDS011;52947;50.842;6.084;2024-03-22T00:53:52;34.08;;;17.20;;
66143;SDS011;52947;50.842;6.084;2024-03-22T00:56:19;32.33;;;17.13;;
66143;SDS011;52947;50.842;6.084;2024-03-22T00:58:45;33.92;;;18.10;;
66143;SDS011;52947;50.842;6.084;2024-03-22T01:01:13;37.53;;;18.35;;
66143;SDS011;52947;50.842;6.084;2024-03-22T01:03:39;38.60;;;20.05;;
66143;SDS011;52947;50.842;6.084;2024-03-22T01:06:06;36.75;;;16.73;;
66143;SDS011;52947;50.842;6.084;2024-03-22T01:08:32;33.80;;;18.25;;
66143;SDS011;52947;50.842;6.084;2024-03-22T01:11:01;39.50;;;18.80;;
66143;SDS011;52947;50.842;6.084;2024-03-22T01:13:27;32.13;;;17.67;;
66143;SDS011;52947;50.842;6.084;2024-03-22T01:15:54;36.65;;;18.20;;
66143;SDS011;52947;50.842;6.084;2024-03-22T01:18:20;38.20;;;18.90;;
66143;SDS011;52947;50.842;6.084;2024-03-22T01:20:47;34.88;;;18.00;;
66143;SDS011;52947;50.842;6.084;2024-03-22T01:23:13;38.72;;;17.77;;
66143;SDS011;52947;50.842;6.084;2024-03-22T01:25:40;33.33;;;18.05;;
66143;SDS011;52947;50.842;6.084;2024-03-22T01:28:07;35.25;;;16.40;;
66143;SDS011;52947;50.842;6.084;2024-03-22T01:30:34;36.42;;;18.00;;
66143;SDS011;52947;50.842;6.084;2024-03-22T01:33:02;28.83;;;16.17;;
66143;SDS011;52947;50.842;6.084;2024-03-22T01:35:29;33.92;;;17.73;;
66143;SDS011;52947;50.842;6.084;2024-03-22T01:37:55;42.90;;;19.98;;
66143;SDS011;52947;50.842;6.084;2024-03-22T01:40:22;44.90;;;17.90;;
66143;SDS011;52947;50.842;6.084;2024-03-22T01:42:48;32.28;;;18.13;;
66143;SDS011;52947;50.842;6.084;2024-03-22T01:45:21;34.35;;;18.60;;
66143;SDS011;52947;50.842;6.084;2024-03-22T01:47:50;41.65;;;17.67;;
66143;SDS011;52947;50.842;6.084;2024-03-22T01:50:17;35.85;;;18.10;;
66143;SDS011;52947;50.842;6.084;2024-03-22T01:52:43;32.00;;;18.38;;
66143;SDS011;52947;50.842;6.084;2024-03-22T01:55:10;33.70;;;18.55;;
66143;SDS011;52947;50.842;6.084;2024-03-22T01:57:37;31.13;;;19.10;;
66143;SDS011;52947;50.842;6.084;2024-03-22T02:00:06;37.15;;;19.05;;
66143;SDS011;52947;50.842;6.084;2024-03-22T02:02:40;37.05;;;18.25;;
66143;SDS011;52947;50.842;6.084;2024-03-22T02:05:11;37.05;;;19.80;;
66143;SDS011;52947;50.842;6.084;2024-03-22T02:07:37;34.83;;;19.55;;
66143;SDS011;52947;50.842;6.084;2024-03-22T02:10:04;33.00;;;18.55;;
66143;SDS011;52947;50.842;6.084;2024-03-22T02:12:33;41.42;;;19.45;;
66143;SDS011;52947;50.842;6.084;2024-03-22T02:15:01;38.47;;;20.50;;
66143;SDS011;52947;50.842;6.084;2024-03-22T02:17:28;35.70;;;19.58;;
66143;SDS011;52947;50.842;6.084;2024-03-22T02:19:56;40.53;;;21.65;;
66143;SDS011;52947;50.842;6.084;2024-03-22T02:22:22;41.13;;;20.60;;
66143;SDS011;52947;50.842;6.084;2024-03-22T02:24:50;33.33;;;19.17;;
66143;SDS011;52947;50.842;6.084;2024-03-22T02:27:17;43.25;;;20.25;;
66143;SDS011;52947;50.842;6.084;2024-03-22T02:29:44;43.25;;;20.70;;
66143;SDS011;52947;50.842;6.084;2024-03-22T02:32:10;40.80;;;20.58;;
66143;SDS011;52947;50.842;6.084;2024-03-22T02:34:37;39.08;;;21.58;;
66143;SDS011;52947;50.842;6.084;2024-03-22T02:37:03;37.95;;;20.10;;
66143;SDS011;52947;50.842;6.084;2024-03-22T02:39:30;42.20;;;22.55;;
66143;SDS011;52947;50.842;6.084;2024-03-22T02:41:57;43.03;;;21.83;;
66143;SDS011;52947;50.842;6.084;2024-03-22T02:44:24;36.80;;;20.30;;
66143;SDS011;52947;50.842;6.084;2024-03-22T02:46:50;51.17;;;23.33;;
66143;SDS011;52947;50.842;6.084;2024-03-22T02:49:17;35.80;;;19.73;;
66143;SDS011;52947;50.842;6.084;2024-03-22T02:51:43;37.90;;;20.27;;
66143;SDS011;52947;50.842;6.084;2024-03-22T02:54:11;36.28;;;19.60;;
66143;SDS011;52947;50.842;6.084;2024-03-22T02:56:37;37.85;;;21.45;;
66143;SDS011;52947;50.842;6.084;2024-03-22T02:59:05;41.30;;;21.83;;
66143;SDS011;52947;50.842;6.084;2024-03-22T03:01:31;36.60;;;20.25;;
66143;SDS011;52947;50.842;6.084;2024-03-22T03:03:58;31.02;;;16.83;;
66143;SDS011;52947;50.842;6.084;2024-03-22T03:06:24;39.65;;;19.00;;
66143;SDS011;52947;50.842;6.084;2024-03-22T03:08:51;33.83;;;20.02;;
66143;SDS011;52947;50.842;6.084;2024-03-22T03:11:17;32.50;;;19.02;;
66143;SDS011;52947;50.842;6.084;2024-03-22T03:13:44;29.23;;;15.65;;
66143;SDS011;52947;50.842;6.084;2024-03-22T03:16:11;30.60;;;17.67;;
66143;SDS011;52947;50.842;6.084;2024-03-22T03:18:39;35.47;;;18.77;;
66143;SDS011;52947;50.842;6.084;2024-03-22T03:21:05;36.50;;;18.17;;
66143;SDS011;52947;50.842;6.084;2024-03-22T03:23:32;40.35;;;17.02;;
66143;SDS011;52947;50.842;6.084;2024-03-22T03:25:58;33.03;;;17.58;;
66143;SDS011;52947;50.842;6.084;2024-03-22T03:28:25;44.40;;;18.35;;
66143;SDS011;52947;50.842;6.084;2024-03-22T03:30:52;30.17;;;16.38;;
66143;SDS011;52947;50.842;6.084;2024-03-22T03:33:21;35.13;;;16.33;;
66143;SDS011;52947;50.842;6.084;2024-03-22T03:35:47;34.92;;;16.58;;
66143;SDS011;52947;50.842;6.084;2024-03-22T03:38:14;32.35;;;17.23;;
66143;SDS011;52947;50.842;6.084;2024-03-22T03:40:40;30.92;;;16.30;;
66143;SDS011;52947;50.842;6.084;2024-03-22T03:43:07;30.23;;;16.58;;
66143;SDS011;52947;50.842;6.084;2024-03-22T03:45:35;34.28;;;16.45;;
66143;SDS011;52947;50.842;6.084;2024-03-22T03:48:03;27.02;;;17.17;;
66143;SDS011;52947;50.842;6.084;2024-03-22T03:50:31;30.85;;;15.68;;
66143;SDS011;52947;50.842;6.084;2024-03-22T03:52:58;29.88;;;16.13;;
66143;SDS011;52947;50.842;6.084;2024-03-22T03:55:24;28.80;;;15.90;;
66143;SDS011;52947;50.842;6.084;2024-03-22T03:57:51;29.45;;;16.70;;
66143;SDS011;52947;50.842;6.084;2024-03-22T04:00:18;28.50;;;17.38;;
66143;SDS011;52947;50.842;6.084;2024-03-22T04:02:48;27.80;;;16.80;;
66143;SDS011;52947;50.842;6.084;2024-03-22T04:05:14;32.42;;;15.95;;
66143;SDS011;52947;50.842;6.084;2024-03-22T04:07:46;32.35;;;18.70;;
66143;SDS011;52947;50.842;6.084;2024-03-22T04:10:12;32.17;;;18.75;;
66143;SDS011;52947;50.842;6.084;2024-03-22T04:12:39;39.08;;;17.45;;
66143;SDS011;52947;50.842;6.084;2024-03-22T04:15:06;35.00;;;17.70;;
66143;SDS011;52947;50.842;6.084;2024-03-22T04:17:34;39.95;;;17.77;;
66143;SDS011;52947;50.842;6.084;2024-03-22T04:20:00;31.27;;;17.70;;
66143;SDS011;52947;50.842;6.084;2024-03-22T04:22:28;34.10;;;17.35;;
66143;SDS011;52947;50.842;6.084;2024-03-22T04:24:55;35.72;;;20.02;;
66143;SDS011;52947;50.842;6.084;2024-03-22T04:27:22;34.72;;;20.27;;
66143;SDS011;52947;50.842;6.084;2024-03-22T04:29:48;33.88;;;19.00;;
66143;SDS011;52947;50.842;6.084;2024-03-22T04:32:15;35.97;;;19.63;;
66143;SDS011;52947;50.842;6.084;2024-03-22T04:34:41;37.65;;;19.92;;
66143;SDS011;52947;50.842;6.084;2024-03-22T04:37:08;39.28;;;20.88;;
66143;SDS011;52947;50.842;6.084;2024-03-22T04:39:37;34.13;;;18.63;;
66143;SDS011;52947;50.842;6.084;2024-03-22T04:42:05;39.60;;;22.00;;
66143;SDS011;52947;50.842;6.084;2024-03-22T04:44:33;35.38;;;19.63;;
66143;SDS011;52947;50.842;6.084;2024-03-22T04:47:00;35.55;;;20.77;;
66143;SDS011;52947;50.842;6.084;2024-03-22T04:49:26;37.28;;;21.02;;
66143;SDS011;52947;50.842;6.084;2024-03-22T04:51:53;36.88;;;21.27;;
66143;SDS011;52947;50.842;6.084;2024-03-22T04:54:19;37.08;;;20.15;;
66143;SDS011;52947;50.842;6.084;2024-03-22T04:56:46;42.03;;;21.55;;
66143;SDS011;52947;50.842;6.084;2024-03-22T04:59:13;40.30;;;21.77;;
66143;SDS011;52947;50.842;6.084;2024-03-22T05:01:41;40.28;;;22.85;;
66143;SDS011;52947;50.842;6.084;2024-03-22T05:04:07;39.47;;;23.08;;
66143;SDS011;52947;50.842;6.084;2024-03-22T05:06:34;37.00;;;22.15;;
66143;SDS011;52947;50.842;6.084;2024-03-22T05:09:00;40.40;;;20.00;;
66143;SDS011;52947;50.842;6.084;2024-03-22T05:11:28;45.30;;;23.65;;
66143;SDS011;52947;50.842;6.084;2024-03-22T05:13:55;39.42;;;22.60;;
66143;SDS011;52947;50.842;6.084;2024-03-22T05:16:23;44.50;;;23.23;;
66143;SDS011;52947;50.842;6.084;2024-03-22T05:18:49;49.72;;;24.58;;
66143;SDS011;52947;50.842;6.084;2024-03-22T05:21:16;42.25;;;22.15;;
66143;SDS011;52947;50.842;6.084;2024-03-22T05:23:42;38.00;;;20.17;;
66143;SDS011;52947;50.842;6.084;2024-03-22T05:26:09;40.55;;;21.00;;
66143;SDS011;52947;50.842;6.084;2024-03-22T05:28:35;50.90;;;23.88;;
66143;SDS011;52947;50.842;6.084;2024-03-22T05:31:03;42.78;;;20.52;;
66143;SDS011;52947;50.842;6.084;2024-03-22T05:33:30;34.78;;;18.60;;
66143;SDS011;52947;50.842;6.084;2024-03-22T05:35:57;44.05;;;23.25;;
66143;SDS011;52947;50.842;6.084;2024-03-22T05:38:24;41.50;;;23.42;;
66143;SDS011;52947;50.842;6.084;2024-03-22T05:40:51;46.50;;;23.00;;
66143;SDS011;52947;50.842;6.084;2024-03-22T05:43:17;39.58;;;21.15;;
66143;SDS011;52947;50.842;6.084;2024-03-22T05:45:44;44.78;;;23.95;;
66143;SDS011;52947;50.842;6.084;2024-03-22T05:48:10;42.13;;;23.20;;
66143;SDS011;52947;50.842;6.084;2024-03-22T05:50:39;38.83;;;20.88;;
66143;SDS011;52947;50.842;6.084;2024-03-22T05:53:06;45.97;;;22.73;;
66143;SDS011;52947;50.842;6.084;2024-03-22T05:55:33;41.63;;;23.02;;
66143;SDS011;52947;50.842;6.084;2024-03-22T05:57:59;39.10;;;22.00;;
66143;SDS011;52947;50.842;6.084;2024-03-22T06:00:26;47.08;;;22.13;;
66143;SDS011;52947;50.842;6.084;2024-03-22T06:02:52;53.85;;;24.88;;
66143;SDS011;52947;50.842;6.084;2024-03-22T06:05:19;45.17;;;23.90;;
66143;SDS011;52947;50.842;6.084;2024-03-22T06:07:46;58.75;;;23.45;;
66143;SDS011;52947;50.842;6.084;2024-03-22T06:10:13;43.47;;;24.35;;
66143;SDS011;52947;50.842;6.084;2024-03-22T06:12:39;45.97;;;23.75;;
66143;SDS011;52947;50.842;6.084;2024-03-22T06:15:07;44.60;;;25.85;;
66143;SDS011;52947;50.842;6.084;2024-03-22T06:17:33;47.28;;;24.33;;
66143;SDS011;52947;50.842;6.084;2024-03-22T06:20:00;42.17;;;22.67;;
66143;SDS011;52947;50.842;6.084;2024-03-22T06:22:27;42.30;;;22.30;;
66143;SDS011;52947;50.842;6.084;2024-03-22T06:24:55;36.85;;;20.13;;
66143;SDS011;52947;50.842;6.084;2024-03-22T06:27:21;31.27;;;18.58;;
66143;SDS011;52947;50.842;6.084;2024-03-22T06:29:48;33.47;;;16.98;;
66143;SDS011;52947;50.842;6.084;2024-03-22T06:32:15;26.40;;;15.55;;
66143;SDS011;52947;50.842;6.084;2024-03-22T06:34:42;36.50;;;16.42;;
66143;SDS011;52947;50.842;6.084;2024-03-22T06:37:08;26.20;;;14.90;;
66143;SDS011;52947;50.842;6.084;2024-03-22T06:39:35;25.83;;;14.13;;
66143;SDS011;52947;50.842;6.084;2024-03-22T06:42:03;26.10;;;13.32;;
66143;SDS011;52947;50.842;6.084;2024-03-22T06:44:30;22.75;;;14.15;;
66143;SDS011;52947;50.842;6.084;2024-03-22T06:46:57;25.30;;;13.30;;
66143;SDS011;52947;50.842;6.084;2024-03-22T06:49:24;21.75;;;12.05;;
66143;SDS011;52947;50.842;6.084;2024-03-22T06:51:50;23.60;;;12.23;;
66143;SDS011;52947;50.842;6.084;2024-03-22T06:54:17;21.45;;;12.50;;
66143;SDS011;52947;50.842;6.084;2024-03-22T06:56:43;25.85;;;13.32;;
66143;SDS011;52947;50.842;6.084;2024-03-22T06:59:12;21.55;;;13.38;;
66143;SDS011;52947;50.842;6.084;2024-03-22T07:01:39;29.30;;;13.65;;
66143;SDS011;52947;50.842;6.084;2024-03-22T07:04:06;30.15;;;15.52;;
66143;SDS011;52947;50.842;6.084;2024-03-22T07:06:32;25.15;;;14.98;;
66143;SDS011;52947;50.842;6.084;2024-03-22T07:08:59;29.17;;;15.45;;
66143;SDS011;52947;50.842;6.084;2024-03-22T07:11:25;28.45;;;16.33;;
66143;SDS011;52947;50.842;6.084;2024-03-22T07:13:52;29.33;;;16.88;;
66143;SDS011;52947;50.842;6.084;2024-03-22T07:16:19;33.65;;;16.92;;
66143;SDS011;52947;50.842;6.084;2024-03-22T07:18:46;34.17;;;16.45;;
66143;SDS011;52947;50.842;6.084;2024-03-22T07:21:14;29.63;;;16.63;;
66143;SDS011;52947;50.842;6.084;2024-03-22T07:23:41;34.88;;;19.13;;
66143;SDS011;52947;50.842;6.084;2024-03-22T07:26:07;31.88;;;18.23;;
66143;SDS011;52947;50.842;6.084;2024-03-22T07:28:34;36.92;;;18.52;;
66143;SDS011;52947;50.842;6.084;2024-03-22T07:31:00;39.03;;;20.98;;
66143;SDS011;52947;50.842;6.084;2024-03-22T07:33:30;42.08;;;21.25;;
66143;SDS011;52947;50.842;6.084;2024-03-22T07:36:00;40.45;;;20.83;;
66143;SDS011;52947;50.842;6.084;2024-03-22T07:38:28;40.28;;;20.58;;
66143;SDS011;52947;50.842;6.084;2024-03-22T07:40:54;39.90;;;20.65;;
66143;SDS011;52947;50.842;6.084;2024-03-22T07:43:21;45.47;;;21.50;;
66143;SDS011;52947;50.842;6.084;2024-03-22T07:45:47;43.85;;;21.80;;
66143;SDS011;52947;50.842;6.084;2024-03-22T07:48:14;46.67;;;21.70;;
66143;SDS011;52947;50.842;6.084;2024-03-22T07:50:43;32.78;;;18.50;;
66143;SDS011;52947;50.842;6.084;2024-03-22T07:53:10;39.90;;;20.10;;
66143;SDS011;52947;50.842;6.084;2024-03-22T07:55:36;38.75;;;21.55;;
66143;SDS011;52947;50.842;6.084;2024-03-22T07:58:03;37.65;;;20.35;;
66143;SDS011;52947;50.842;6.084;2024-03-22T08:00:30;39.95;;;20.58;;
66143;SDS011;52947;50.842;6.084;2024-03-22T08:02:57;40.17;;;20.23;;
66143;SDS011;52947;50.842;6.084;2024-03-22T08:05:23;45.55;;;21.08;;
66143;SDS011;52947;50.842;6.084;2024-03-22T08:07:51;39.40;;;20.65;;
66143;SDS011;52947;50.842;6.084;2024-03-22T08:10:17;35.63;;;17.90;;
66143;SDS011;52947;50.842;6.084;2024-03-22T08:12:44;34.15;;;20.23;;
66143;SDS011;52947;50.842;6.084;2024-03-22T08:15:10;34.80;;;20.55;;
66143;SDS011;52947;50.842;6.084;2024-03-22T08:17:37;39.33;;;19.42;;
66143;SDS011;52947;50.842;6.084;2024-03-22T08:20:04;33.60;;;20.00;;
66143;SDS011;52947;50.842;6.084;2024-03-22T08:22:32;31.23;;;18.75;;
66143;SDS011;52947;50.842;6.084;2024-03-22T08:24:59;34.75;;;18.80;;
66143;SDS011;52947;50.842;6.084;2024-03-22T08:27:27;38.97;;;18.73;;
66143;SDS011;52947;50.842;6.084;2024-03-22T08:29:54;41.95;;;19.85;;
66143;SDS011;52947;50.842;6.084;2024-03-22T08:32:21;37.80;;;18.77;;
66143;SDS011;52947;50.842;6.084;2024-03-22T08:34:46;33.40;;;19.65;;
66143;SDS011;52947;50.842;6.084;2024-03-22T08:37:14;35.22;;;18.15;;
66143;SDS011;52947;50.842;6.084;2024-03-22T08:39:39;35.17;;;18.20;;
66143;SDS011;52947;50.842;6.084;2024-03-22T08:42:08;32.75;;;18.58;;
66143;SDS011;52947;50.842;6.084;2024-03-22T08:44:35;34.50;;;18.80;;
66143;SDS011;52947;50.842;6.084;2024-03-22T08:47:02;35.13;;;18.30;;
66143;SDS011;52947;50.842;6.084;2024-03-22T08:49:29;34.55;;;17.58;;
66143;SDS011;52947;50.842;6.084;2024-03-22T08:51:55;31.45;;;17.80;;
66143;SDS011;52947;50.842;6.084;2024-03-22T08:54:22;33.60;;;18.30;;
66143;SDS011;52947;50.842;6.084;2024-03-22T08:56:49;28.25;;;16.92;;
66143;SDS011;52947;50.842;6.084;2024-03-22T08:59:16;30.98;;;15.48;;
66143;SDS011;52947;50.842;6.084;2024-03-22T09:01:43;33.05;;;18.63;;
66143;SDS011;52947;50.842;6.084;2024-03-22T09:04:09;34.35;;;16.58;;
66143;SDS011;52947;50.842;6.084;2024-03-22T09:06:36;27.77;;;15.68;;
66143;SDS011;52947;50.842;6.084;2024-03-22T09:09:02;31.27;;;15.27;;
66143;SDS011;52947;50.842;6.084;2024-03-22T09:11:29;24.58;;;14.88;;
66143;SDS011;52947;50.842;6.084;2024-03-22T09:13:55;30.67;;;16.25;;
66143;SDS011;52947;50.842;6.084;2024-03-22T09:16:24;32.80;;;17.02;;
66143;SDS011;52947;50.842;6.084;2024-03-22T09:18:50;30.38;;;16.13;;
66143;SDS011;52947;50.842;6.084;2024-03-22T09:21:17;25.65;;;14.90;;
66143;SDS011;52947;50.842;6.084;2024-03-22T09:23:43;28.55;;;14.93;;
66143;SDS011;52947;50.842;6.084;2024-03-22T09:26:10;28.77;;;16.83;;
66143;SDS011;52947;50.842;6.084;2024-03-22T09:28:36;28.20;;;15.77;;
66143;SDS011;52947;50.842;6.084;2024-03-22T09:31:04;31.52;;;16.55;;
66143;SDS011;52947;50.842;6.084;2024-03-22T09:33:33;25.10;;;16.08;;
66143;SDS011;52947;50.842;6.084;2024-03-22T09:36:00;38.63;;;18.55;;
66143;SDS011;52947;50.842;6.084;2024-03-22T09:38:26;26.92;;;15.63;;
66143;SDS011;52947;50.842;6.084;2024-03-22T09:40:53;29.77;;;16.95;;
66143;SDS011;52947;50.842;6.084;2024-03-22T09:43:20;36.13;;;19.13;;
66143;SDS011;52947;50.842;6.084;2024-03-22T09:45:47;32.25;;;14.98;;
66143;SDS011;52947;50.842;6.084;2024-03-22T09:48:15;28.38;;;12.73;;
66143;SDS011;52947;50.842;6.084;2024-03-22T09:50:44;35.55;;;20.05;;
66143;SDS011;52947;50.842;6.084;2024-03-22T09:53:13;34.20;;;15.75;;
66143;SDS011;52947;50.842;6.084;2024-03-22T09:55:40;29.25;;;17.10;;
66143;SDS011;52947;50.842;6.084;2024-03-22T09:58:09;29.20;;;16.77;;
66143;SDS011;52947;50.842;6.084;2024-03-22T10:00:39;28.15;;;16.30;;
66143;SDS011;52947;50.842;6.084;2024-03-22T10:03:06;29.83;;;16.08;;
66143;SDS011;52947;50.842;6.084;2024-03-22T10:05:34;28.63;;;15.90;;
66143;SDS011;52947;50.842;6.084;2024-03-22T10:08:02;24.45;;;13.38;;
66143;SDS011;52947;50.842;6.084;2024-03-22T10:10:31;36.20;;;17.75;;
66143;SDS011;52947;50.842;6.084;2024-03-22T10:12:57;28.02;;;16.63;;
66143;SDS011;52947;50.842;6.084;2024-03-22T10:15:26;33.05;;;18.65;;
66143;SDS011;52947;50.842;6.084;2024-03-22T10:17:53;29.75;;;16.85;;
66143;SDS011;52947;50.842;6.084;2024-03-22T10:20:23;32.20;;;18.15;;
66143;SDS011;52947;50.842;6.084;2024-03-22T10:22:53;31.90;;;17.23;;
66143;SDS011;52947;50.842;6.084;2024-03-22T10:25:24;32.80;;;18.58;;
66143;SDS011;52947;50.842;6.084;2024-03-22T10:27:51;39.15;;;20.05;;
66143;SDS011;52947;50.842;6.084;2024-03-22T10:30:21;44.22;;;21.65;;
66143;SDS011;52947;50.842;6.084;2024-03-22T10:32:49;33.42;;;21.52;;
66143;SDS011;52947;50.842;6.084;2024-03-22T10:35:17;41.63;;;22.58;;
66143;SDS011;52947;50.842;6.084;2024-03-22T10:37:43;32.28;;;18.60;;
66143;SDS011;52947;50.842;6.084;2024-03-22T10:40:11;37.88;;;22.55;;
66143;SDS011;52947;50.842;6.084;2024-03-22T10:42:39;48.30;;;24.52;;
66143;SDS011;52947;50.842;6.084;2024-03-22T10:45:08;43.33;;;24.25;;
66143;SDS011;52947;50.842;6.084;2024-03-22T10:47:36;39.85;;;22.50;;
66143;SDS011;52947;50.842;6.084;2024-03-22T10:50:04;36.15;;;22.70;;
66143;SDS011;52947;50.842;6.084;2024-03-22T10:52:33;38.47;;;20.05;;
66143;SDS011;52947;50.842;6.084;2024-03-22T10:55:07;31.30;;;20.07;;
66143;SDS011;52947;50.842;6.084;2024-03-22T10:57:39;30.75;;;18.00;;
66143;SDS011;52947;50.842;6.084;2024-03-22T11:00:08;32.95;;;18.83;;
66143;SDS011;52947;50.842;6.084;2024-03-22T11:02:35;35.03;;;20.75;;
66143;SDS011;52947;50.842;6.084;2024-03-22T11:05:03;36.63;;;19.77;;
66143;SDS011;52947;50.842;6.084;2024-03-22T11:07:30;29.55;;;17.88;;
66143;SDS011;52947;50.842;6.084;2024-03-22T11:09:57;40.25;;;23.90;;
66143;SDS011;52947;50.842;6.084;2024-03-22T11:12:26;41.88;;;23.77;;
66143;SDS011;52947;50.842;6.084;2024-03-22T11:15:00;41.53;;;23.43;;
66143;SDS011;52947;50.842;6.084;2024-03-22T11:17:26;40.78;;;22.38;;
66143;SDS011;52947;50.842;6.084;2024-03-22T11:19:56;40.58;;;23.33;;
66143;SDS011;52947;50.842;6.084;2024-03-22T11:22:24;42.95;;;22.88;;
66143;SDS011;52947;50.842;6.084;2024-03-22T11:24:52;42.47;;;25.10;;
66143;SDS011;52947;50.842;6.084;2024-03-22T11:27:18;44.60;;;25.02;;
66143;SDS011;52947;50.842;6.084;2024-03-22T11:29:45;49.78;;;27.55;;
66143;SDS011;52947;50.842;6.084;2024-03-22T11:32:15;46.25;;;26.35;;
66143;SDS011;52947;50.842;6.084;2024-03-22T11:34:42;49.05;;;26.98;;
66143;SDS011;52947;50.842;6.084;2024-03-22T11:37:09;53.25;;;28.27;;
66143;SDS011;52947;50.842;6.084;2024-03-22T11:39:36;52.00;;;29.05;;
66143;SDS011;52947;50.842;6.084;2024-03-22T11:42:03;49.45;;;29.05;;
66143;SDS011;52947;50.842;6.084;2024-03-22T11:44:31;50.45;;;28.23;;
66143;SDS011;52947;50.842;6.084;2024-03-22T11:46:59;51.30;;;30.10;;
66143;SDS011;52947;50.842;6.084;2024-03-22T11:49:27;52.58;;;28.98;;
66143;SDS011;52947;50.842;6.084;2024-03-22T11:51:54;45.45;;;28.67;;
66143;SDS011;52947;50.842;6.084;2024-03-22T11:54:22;54.85;;;28.17;;
66143;SDS011;52947;50.842;6.084;2024-03-22T11:56:51;49.05;;;29.08;;
66143;SDS011;52947;50.842;6.084;2024-03-22T11:59:19;47.38;;;29.42;;
66143;SDS011;52947;50.842;6.084;2024-03-22T12:01:45;53.30;;;28.02;;
66143;SDS011;52947;50.842;6.084;2024-03-22T12:04:13;44.72;;;26.67;;
66143;SDS011;52947;50.842;6.084;2024-03-22T12:06:42;48.88;;;26.95;;
66143;SDS011;52947;50.842;6.084;2024-03-22T12:09:09;51.72;;;26.92;;
66143;SDS011;52947;50.842;6.084;2024-03-22T12:11:37;48.25;;;25.63;;
66143;SDS011;52947;50.842;6.084;2024-03-22T12:14:05;49.28;;;24.00;;
66143;SDS011;52947;50.842;6.084;2024-03-22T12:16:32;40.28;;;22.27;;
66143;SDS011;52947;50.842;6.084;2024-03-22T12:18:59;41.47;;;22.08;;
66143;SDS011;52947;50.842;6.084;2024-03-22T12:21:25;30.92;;;20.98;;
66143;SDS011;52947;50.842;6.084;2024-03-22T12:23:53;29.60;;;17.13;;
66143;SDS011;52947;50.842;6.084;2024-03-22T12:26:20;39.60;;;20.55;;
66143;SDS011;52947;50.842;6.084;2024-03-22T12:28:47;31.50;;;19.13;;
66143;SDS011;52947;50.842;6.084;2024-03-22T12:31:13;31.88;;;18.88;;
66143;SDS011;52947;50.842;6.084;2024-03-22T12:33:44;30.55;;;17.42;;
66143;SDS011;52947;50.842;6.084;2024-03-22T12:36:10;33.13;;;19.27;;
66143;SDS011;52947;50.842;6.084;2024-03-22T12:38:37;33.60;;;17.65;;
66143;SDS011;52947;50.842;6.084;2024-03-22T12:41:04;30.38;;;17.10;;
66143;SDS011;52947;50.842;6.084;2024-03-22T12:43:32;28.77;;;17.63;;
66143;SDS011;52947;50.842;6.084;2024-03-22T12:45:58;26.30;;;17.27;;
66143;SDS011;52947;50.842;6.084;2024-03-22T12:48:25;38.08;;;19.85;;
66143;SDS011;52947;50.842;6.084;2024-03-22T12:50:51;27.10;;;17.98;;
66143;SDS011;52947;50.842;6.084;2024-03-22T12:53:18;29.17;;;18.50;;
66143;SDS011;52947;50.842;6.084;2024-03-22T12:55:44;32.35;;;18.25;;
66143;SDS011;52947;50.842;6.084;2024-03-22T12:58:13;30.45;;;19.27;;
66143;SDS011;52947;50.842;6.084;2024-03-22T13:00:39;30.05;;;18.70;;
66143;SDS011;52947;50.842;6.084;2024-03-22T13:03:06;30.58;;;17.27;;
66143;SDS011;52947;50.842;6.084;2024-03-22T13:05:32;24.13;;;14.88;;
66143;SDS011;52947;50.842;6.084;2024-03-22T13:07:59;29.60;;;16.63;;
66143;SDS011;52947;50.842;6.084;2024-03-22T13:10:25;24.25;;;15.77;;
66143;SDS011;52947;50.842;6.084;2024-03-22T13:12:52;29.25;;;16.88;;
66143;SDS011;52947;50.842;6.084;2024-03-22T13:15:20;30.88;;;16.50;;
66143;SDS011;52947;50.842;6.084;2024-03-22T13:17:46;32.90;;;17.30;;
66143;SDS011;52947;50.842;6.084;2024-03-22T13:20:14;27.83;;;16.63;;
66143;SDS011;52947;50.842;6.084;2024-03-22T13:22:40;28.50;;;16.67;;
66143;SDS011;52947;50.842;6.084;2024-03-22T13:25:08;24.30;;;17.00;;
66143;SDS011;52947;50.842;6.084;2024-03-22T13:27:36;23.17;;;15.57;;
66143;SDS011;52947;50.842;6.084;2024-03-22T13:30:05;25.58;;;13.65;;
66143;SDS011;52947;50.842;6.084;2024-03-22T13:32:37;21.85;;;12.55;;
66143;SDS011;52947;50.842;6.084;2024-03-22T13:35:04;18.92;;;12.00;;
66143;SDS011;52947;50.842;6.084;2024-03-22T13:37:31;20.08;;;13.10;;
66143;SDS011;52947;50.842;6.084;2024-03-22T13:39:58;18.15;;;10.27;;
66143;SDS011;52947;50.842;6.084;2024-03-22T13:42:25;18.63;;;11.38;;
66143;SDS011;52947;50.842;6.084;2024-03-22T13:44:52;19.73;;;12.43;;
66143;SDS011;52947;50.842;6.084;2024-03-22T13:47:18;24.90;;;12.20;;
66143;SDS011;52947;50.842;6.084;2024-03-22T13:49:47;21.95;;;11.25;;
66143;SDS011;52947;50.842;6.084;2024-03-22T13:52:13;24.58;;;12.32;;
66143;SDS011;52947;50.842;6.084;2024-03-22T13:54:40;16.83;;;11.77;;
66143;SDS011;52947;50.842;6.084;2024-03-22T13:57:08;19.35;;;11.13;;
66143;SDS011;52947;50.842;6.084;2024-03-22T13:59:36;19.63;;;11.40;;
66143;SDS011;52947;50.842;6.084;2024-03-22T14:02:02;21.35;;;12.10;;
66143;SDS011;52947;50.842;6.084;2024-03-22T14:04:30;23.40;;;11.18;;
66143;SDS011;52947;50.842;6.084;2024-03-22T14:06:58;17.05;;;11.25;;
66143;SDS011;52947;50.842;6.084;2024-03-22T14:09:26;19.35;;;10.98;;
66143;SDS011;52947;50.842;6.084;2024-03-22T14:11:52;20.60;;;12.75;;
66143;SDS011;52947;50.842;6.084;2024-03-22T14:14:19;22.65;;;13.02;;
66143;SDS011;52947;50.842;6.084;2024-03-22T14:16:45;16.77;;;11.38;;
66143;SDS011;52947;50.842;6.084;2024-03-22T14:19:12;17.35;;;10.10;;
66143;SDS011;52947;50.842;6.084;2024-03-22T14:21:38;22.30;;;12.13;;